Time;durP1;ratioP1;P1;durP2;ratioP2;P2;SDS_P1;SDS_P2;PMS_P1;PMS_P2;Temp;Humidity;BMP_temperature;BMP_pressure;BME280_temperature;BME280_humidity;BME280_pressure;Samples;Min_cycle;Max_cycle;Signal;HPM_P1;HPM_P2
2022/11/18 00:02:09;;;;;;;6.18;4.00;;;10.20;92.60;;;;;;5071098;28;20191;-73
2022/11/18 00:04:34;;;;;;;8.20;4.90;;;10.30;92.90;;;;;;5069596;28;20272;-74
2022/11/18 00:07:00;;;;;;;4.47;4.20;;;10.20;92.50;;;;;;5067525;28;20175;-73
2022/11/18 00:09:25;;;;;;;6.07;4.47;;;10.20;92.40;;;;;;5069215;28;20257;-73
2022/11/18 00:14:35;;;;;;;5.57;4.68;;;10.20;92.90;;;;;;5070814;28;20189;-72
2022/11/18 00:17:03;;;;;;;6.20;4.43;;;10.20;92.80;;;;;;5069283;28;20183;-71
2022/11/18 00:19:32;;;;;;;6.78;4.55;;;10.20;92.70;;;;;;5069859;28;20182;-72
2022/11/18 00:21:58;;;;;;;4.25;3.80;;;10.10;92.50;;;;;;5065662;28;20757;-73
2022/11/18 00:24:24;;;;;;;4.25;3.85;;;10.10;92.80;;;;;;5063355;28;20198;-73
2022/11/18 00:26:50;;;;;;;7.35;4.10;;;10.10;92.90;;;;;;5063430;28;20191;-73
2022/11/18 00:29:16;;;;;;;5.18;4.68;;;10.10;92.70;;;;;;5064474;28;20217;-73
2022/11/18 00:31:42;;;;;;;5.35;4.60;;;10.00;92.50;;;;;;5063363;28;20256;-73
2022/11/18 00:34:11;;;;;;;5.32;4.82;;;10.00;92.40;;;;;;5075297;28;20218;-73
2022/11/18 00:36:37;;;;;;;4.80;4.35;;;10.00;92.40;;;;;;5075520;28;20186;-72
2022/11/18 00:39:03;;;;;;;4.50;4.25;;;10.00;92.30;;;;;;5066727;28;20182;-72
2022/11/18 00:42:50;;;;;;;6.78;5.07;;;10.00;92.10;;;;;;5069385;28;20179;-73
2022/11/18 00:44:15;;;;;;;7.32;5.32;;;9.90;92.10;;;;;;5068486;28;20716;-73
2022/11/18 00:46:41;;;;;;;6.60;4.90;;;9.90;92.00;;;;;;5072576;28;20575;-73
2022/11/18 00:49:08;;;;;;;7.63;5.13;;;9.90;91.90;;;;;;5068974;28;20186;-73
2022/11/18 00:51:34;;;;;;;6.97;6.00;;;9.90;92.00;;;;;;5071042;28;20179;-73
2022/11/18 00:54:00;;;;;;;10.63;6.93;;;9.80;92.00;;;;;;5071103;28;20663;-73
2022/11/18 00:56:25;;;;;;;13.13;7.00;;;9.80;92.00;;;;;;5065256;28;20190;-73
2022/11/18 00:58:51;;;;;;;14.02;7.25;;;9.80;91.80;;;;;;5067020;28;20195;-73
2022/11/18 01:01:16;;;;;;;10.10;6.50;;;9.80;91.90;;;;;;5066732;28;20202;-73
2022/11/18 01:03:42;;;;;;;8.60;6.65;;;9.80;91.80;;;;;;5067234;28;20179;-73
2022/11/18 01:06:08;;;;;;;10.38;6.03;;;9.70;91.70;;;;;;5068281;28;20215;-72
2022/11/18 01:08:34;;;;;;;8.70;6.43;;;9.70;92.00;;;;;;5071269;28;20201;-73
2022/11/18 01:13:17;;;;;;;7.80;6.57;;;9.70;92.20;;;;;;5069849;28;20561;-73
2022/11/18 01:13:50;;;;;;;6.72;6.05;;;9.70;92.40;;;;;;5073149;28;20265;-73
2022/11/18 01:16:20;;;;;;;7.63;6.20;;;9.70;92.40;;;;;;5068756;28;20217;-72
2022/11/18 01:18:46;;;;;;;6.03;5.50;;;9.70;92.20;;;;;;5070418;28;20175;-72
2022/11/18 01:21:11;;;;;;;6.15;5.55;;;9.70;92.20;;;;;;5068663;28;20245;-73
2022/11/18 01:23:37;;;;;;;5.15;4.80;;;9.60;92.00;;;;;;5069502;28;20178;-73
2022/11/18 01:26:05;;;;;;;6.63;5.75;;;9.60;93.00;;;;;;5077255;28;20589;-73
2022/11/18 01:28:31;;;;;;;8.60;6.15;;;9.50;92.40;;;;;;5070558;28;20183;-73
2022/11/18 01:31:04;;;;;;;6.53;5.20;;;9.60;93.20;;;;;;5066144;28;20187;-72
2022/11/18 01:33:29;;;;;;;5.43;4.93;;;9.50;92.80;;;;;;5068051;28;20262;-72
2022/11/18 01:35:55;;;;;;;5.38;4.88;;;9.50;92.60;;;;;;5065011;28;20640;-73
2022/11/18 01:38:20;;;;;;;6.87;4.37;;;9.50;92.80;;;;;;5071862;28;20193;-73
2022/11/18 01:40:46;;;;;;;5.00;4.53;;;9.50;92.90;;;;;;5070812;28;20189;-73
2022/11/18 01:43:14;;;;;;;5.78;4.93;;;9.50;93.30;;;;;;5069509;28;20186;-73
2022/11/18 01:45:42;;;;;;;8.50;5.05;;;9.50;92.60;;;;;;5069943;28;20211;-73
2022/11/18 01:48:16;;;;;;;5.57;4.03;;;9.50;92.50;;;;;;5071266;28;20179;-73
2022/11/18 01:50:46;;;;;;;7.82;5.97;;;9.40;92.30;;;;;;5067584;28;20664;-73
2022/11/18 01:53:17;;;;;;;9.15;6.07;;;9.40;92.40;;;;;;5064609;28;20187;-73
2022/11/18 01:55:47;;;;;;;11.50;6.25;;;9.40;92.10;;;;;;5068721;28;20261;-73
2022/11/18 01:58:22;;;;;;;6.70;5.82;;;9.40;92.40;;;;;;5072336;28;20182;-72
2022/11/18 02:00:48;;;;;;;12.07;7.63;;;9.30;92.00;;;;;;5064991;28;20265;-73
2022/11/18 02:03:16;;;;;;;11.70;7.65;;;9.30;92.30;;;;;;5067102;28;20191;-73
2022/11/18 02:05:45;;;;;;;18.05;10.85;;;9.30;92.10;;;;;;5063512;28;20298;-72
2022/11/18 02:08:11;;;;;;;17.58;10.48;;;9.30;92.30;;;;;;5067551;28;20194;-72
2022/11/18 02:10:36;;;;;;;10.40;8.10;;;9.30;92.10;;;;;;5068223;28;20187;-73
2022/11/18 02:13:02;;;;;;;13.10;7.83;;;9.30;92.20;;;;;;5070349;28;20180;-73
2022/11/18 02:16:06;;;;;;;11.70;8.00;;;9.20;92.20;;;;;;5072129;28;20396;-73
2022/11/18 02:18:50;;;;;;;12.93;10.20;;;9.20;92.00;;;;;;5019574;28;20613;-73
2022/11/18 02:21:38;;;;;;;20.37;13.57;;;9.20;92.20;;;;;;5018430;28;20180;-72
2022/11/18 02:24:15;;;;;;;20.13;13.48;;;9.10;91.80;;;;;;5019974;28;20746;-73
2022/11/18 02:26:58;;;;;;;21.77;13.18;;;9.10;91.60;;;;;;5019945;28;20208;-73
2022/11/18 02:29:29;;;;;;;23.60;12.95;;;9.00;92.10;;;;;;5018305;28;20212;-72
2022/11/18 02:32:25;;;;;;;20.20;13.07;;;9.10;92.50;;;;;;5019915;28;20188;-72
2022/11/18 02:35:15;;;;;;;20.02;12.57;;;9.00;92.00;;;;;;4947013;28;20191;-72
2022/11/18 02:37:46;;;;;;;26.40;13.70;;;9.00;92.10;;;;;;4946747;28;21041;-71
2022/11/18 02:40:34;;;;;;;21.40;12.17;;;8.90;92.20;;;;;;4945960;28;20187;-71
2022/11/18 02:43:08;;;;;;;18.17;10.95;;;8.90;92.20;;;;;;4949868;28;20260;-73
2022/11/18 02:45:37;;;;;;;19.65;11.60;;;8.90;92.10;;;;;;4941759;28;20229;-73
2022/11/18 02:48:07;;;;;;;21.85;11.35;;;8.90;92.60;;;;;;4948407;28;20183;-73
2022/11/18 02:50:35;;;;;;;22.10;11.10;;;8.80;92.10;;;;;;4947858;28;20709;-73
2022/11/18 02:53:06;;;;;;;16.70;10.88;;;8.80;92.20;;;;;;4935822;28;21120;-72
2022/11/18 02:55:34;;;;;;;15.43;11.13;;;8.80;92.10;;;;;;4985262;28;20787;-72
2022/11/18 02:58:03;;;;;;;20.42;11.05;;;8.80;92.20;;;;;;5011886;28;20196;-73
2022/11/18 03:00:30;;;;;;;21.58;12.57;;;8.70;92.00;;;;;;5012534;28;20284;-72
2022/11/18 03:02:55;;;;;;;24.02;14.40;;;8.70;92.00;;;;;;5006136;28;20196;-73
2022/11/18 03:05:47;;;;;;;21.77;13.70;;;8.70;92.30;;;;;;5014844;28;20962;-72
2022/11/18 03:08:19;;;;;;;26.57;12.90;;;8.70;92.40;;;;;;5009229;28;20980;-72
2022/11/18 03:11:13;;;;;;;21.50;11.80;;;8.70;92.50;;;;;;5019186;28;20657;-73
2022/11/18 03:13:54;;;;;;;21.27;12.37;;;8.70;92.20;;;;;;5065692;28;20178;-73
2022/11/18 03:16:30;;;;;;;17.00;10.80;;;8.60;92.40;;;;;;5064894;28;20190;-74
2022/11/18 03:19:29;;;;;;;15.80;9.67;;;8.60;92.30;;;;;;5064544;28;20202;-72
2022/11/18 03:22:10;;;;;;;15.80;10.20;;;8.60;92.20;;;;;;5070778;28;20201;-73
2022/11/18 03:24:41;;;;;;;16.63;10.77;;;8.60;92.20;;;;;;5064899;28;20201;-73
2022/11/18 03:27:20;;;;;;;17.67;11.80;;;8.60;92.30;;;;;;5065939;28;20191;-72
2022/11/18 03:29:58;;;;;;;18.35;11.80;;;8.50;91.90;;;;;;5067133;28;20193;-72
2022/11/18 03:32:28;;;;;;;20.93;11.70;;;8.50;91.70;;;;;;5061086;28;20236;-73
2022/11/18 03:35:08;;;;;;;21.20;12.77;;;8.50;92.10;;;;;;5071007;28;20660;-74
2022/11/18 03:37:35;;;;;;;18.30;12.67;;;8.50;92.00;;;;;;5063407;28;20186;-72
2022/11/18 03:40:15;;;;;;;16.47;11.60;;;8.40;92.30;;;;;;5059887;28;20183;-73
2022/11/18 03:42:45;;;;;;;23.10;12.10;;;8.40;91.90;;;;;;5061438;28;20183;-73
2022/11/18 03:45:23;;;;;;;20.47;13.20;;;8.40;92.10;;;;;;5070223;28;20269;-72
2022/11/18 03:48:11;;;;;;;24.00;12.90;;;8.40;92.10;;;;;;5067918;28;20242;-72
2022/11/18 03:50:42;;;;;;;26.03;14.77;;;8.40;92.80;;;;;;5067985;28;20182;-73
2022/11/18 03:53:09;;;;;;;18.57;12.43;;;8.50;93.20;;;;;;5067926;28;20869;-72
2022/11/18 03:55:47;;;;;;;16.90;11.97;;;8.40;92.80;;;;;;5069597;28;20277;-73
2022/11/18 03:58:28;;;;;;;24.40;11.33;;;8.40;93.00;;;;;;5066233;28;20193;-72
2022/11/18 04:01:00;;;;;;;21.90;12.97;;;8.40;93.30;;;;;;5064368;28;20273;-73
2022/11/18 04:03:26;;;;;;;29.43;14.77;;;8.40;93.40;;;;;;5071629;28;20668;-72
2022/11/18 04:05:57;;;;;;;19.27;13.40;;;8.40;93.50;;;;;;5064479;28;20298;-73
2022/11/18 04:08:29;;;;;;;29.20;14.60;;;8.40;93.70;;;;;;5068438;28;20949;-74
2022/11/18 04:11:05;;;;;;;21.20;12.17;;;8.40;93.50;;;;;;5067086;28;20684;-73
2022/11/18 04:13:34;;;;;;;23.27;12.73;;;8.30;93.00;;;;;;5065986;28;20317;-72
2022/11/18 04:16:00;;;;;;;23.57;13.63;;;8.30;92.80;;;;;;5073200;28;20186;-72
2022/11/18 04:18:26;;;;;;;27.27;13.93;;;8.30;93.50;;;;;;5066259;28;20703;-73
2022/11/18 04:20:52;;;;;;;22.00;13.77;;;8.30;93.00;;;;;;5064062;28;20262;-73
2022/11/18 04:23:18;;;;;;;28.67;14.00;;;8.30;93.20;;;;;;5075627;28;20209;-73
2022/11/18 04:25:44;;;;;;;23.57;13.83;;;8.30;93.70;;;;;;5069713;28;20217;-73
2022/11/18 04:28:09;;;;;;;23.23;13.67;;;8.30;93.50;;;;;;5070023;28;20753;-73
2022/11/18 04:30:35;;;;;;;19.07;12.73;;;8.30;93.40;;;;;;5075095;28;20680;-73
2022/11/18 04:33:01;;;;;;;19.63;12.10;;;8.20;93.00;;;;;;5071650;28;20273;-72
2022/11/18 04:35:27;;;;;;;19.03;13.13;;;8.20;93.00;;;;;;5069890;28;20183;-72
2022/11/18 04:37:53;;;;;;;22.77;14.10;;;8.20;92.90;;;;;;5070607;28;20190;-74
2022/11/18 04:40:18;;;;;;;22.00;12.67;;;8.20;92.70;;;;;;5069703;28;20191;-72
2022/11/18 04:42:44;;;;;;;19.63;13.30;;;8.20;93.00;;;;;;5071352;28;20175;-74
2022/11/18 04:45:10;;;;;;;21.23;12.60;;;8.20;93.20;;;;;;5068681;28;20882;-73
2022/11/18 04:47:37;;;;;;;21.97;13.10;;;8.20;92.80;;;;;;5066276;28;20197;-73
2022/11/18 04:50:03;;;;;;;17.60;11.20;;;8.20;92.80;;;;;;5065208;28;20183;-73
2022/11/18 04:52:29;;;;;;;17.30;11.57;;;8.30;92.80;;;;;;5063265;28;20269;-72
2022/11/18 04:54:54;;;;;;;16.50;11.07;;;8.30;94.00;;;;;;5060627;28;20265;-72
2022/11/18 04:57:20;;;;;;;21.27;11.17;;;8.40;93.50;;;;;;5063733;28;20906;-72
2022/11/18 04:59:45;;;;;;;20.77;12.40;;;8.40;93.30;;;;;;5064625;28;20179;-73
2022/11/18 05:02:12;;;;;;;21.67;11.47;;;8.40;93.80;;;;;;5068700;28;20663;-73
2022/11/18 05:04:38;;;;;;;23.13;11.93;;;8.40;93.30;;;;;;5064487;28;20212;-72
2022/11/18 05:07:05;;;;;;;23.17;11.40;;;8.50;93.60;;;;;;5068300;28;20191;-73
2022/11/18 05:09:30;;;;;;;21.70;9.87;;;8.50;93.60;;;;;;5071537;28;21092;-72
2022/11/18 05:14:40;;;;;;;26.80;12.23;;;8.60;95.10;;;;;;5061167;28;20190;-74
2022/11/18 05:17:08;;;;;;;21.43;10.57;;;8.60;94.10;;;;;;5066773;28;20183;-73
2022/11/18 05:19:36;;;;;;;21.53;11.47;;;8.70;95.70;;;;;;5066479;28;20267;-74
2022/11/18 05:22:01;;;;;;;16.77;10.37;;;8.60;95.20;;;;;;5063658;28;20186;-74
2022/11/18 05:24:27;;;;;;;24.30;11.90;;;8.60;94.90;;;;;;5066194;28;20186;-73
2022/11/18 05:26:53;;;;;;;20.37;10.83;;;8.60;94.80;;;;;;5066094;28;20226;-73
2022/11/18 05:29:20;;;;;;;21.77;12.37;;;8.60;94.80;;;;;;5061844;28;20331;-73
2022/11/18 05:31:47;;;;;;;19.37;12.07;;;8.60;95.10;;;;;;5062658;28;20190;-76
2022/11/18 05:34:13;;;;;;;17.77;10.80;;;8.60;95.30;;;;;;5065416;28;20618;-75
2022/11/18 05:36:39;;;;;;;21.60;11.33;;;8.60;94.30;;;;;;5067928;28;20265;-75
2022/11/18 05:39:05;;;;;;;15.20;10.00;;;8.60;94.10;;;;;;5066476;28;20183;-73
2022/11/18 05:44:15;;;;;;;19.10;10.70;;;8.60;95.20;;;;;;5072020;28;20190;-71
2022/11/18 05:46:41;;;;;;;16.83;10.27;;;8.70;95.00;;;;;;5073917;28;20218;-71
2022/11/18 05:49:07;;;;;;;17.50;9.53;;;8.70;95.10;;;;;;5074473;28;20187;-71
2022/11/18 05:51:33;;;;;;;14.87;10.00;;;8.70;96.20;;;;;;5065949;28;20191;-74
2022/11/18 05:54:03;;;;;;;18.77;10.87;;;8.70;96.20;;;;;;5068950;28;20179;-74
2022/11/18 05:56:43;;;;;;;18.23;9.47;;;8.60;95.80;;;;;;5065569;28;20591;-74
2022/11/18 05:59:10;;;;;;;20.13;9.77;;;8.60;96.00;;;;;;5070758;28;20269;-74
2022/11/18 06:02:00;;;;;;;11.57;9.00;;;8.60;95.70;;;;;;5068095;28;20190;-71
2022/11/18 06:04:37;;;;;;;14.10;8.13;;;8.70;95.40;;;;;;5070229;28;20190;-71
2022/11/18 06:07:26;;;;;;;16.33;9.63;;;8.70;96.50;;;;;;5073903;28;20206;-71
2022/11/18 06:09:57;;;;;;;13.30;8.40;;;8.70;95.80;;;;;;5073173;28;20178;-71
2022/11/18 06:12:27;;;;;;;16.63;8.60;;;8.80;96.50;;;;;;5069495;28;20273;-71
2022/11/18 06:15:11;;;;;;;16.03;8.93;;;8.80;96.10;;;;;;5068862;28;20292;-71
2022/11/18 06:17:50;;;;;;;17.23;8.73;;;8.70;95.40;;;;;;5065690;28;20644;-70
2022/11/18 06:20:20;;;;;;;14.03;8.77;;;8.70;95.70;;;;;;5079340;28;20269;-72
2022/11/18 06:22:49;;;;;;;13.10;9.17;;;8.70;95.70;;;;;;5069206;28;20262;-72
2022/11/18 06:25:15;;;;;;;16.60;8.63;;;8.80;96.10;;;;;;5074874;28;20635;-70
2022/11/18 06:27:41;;;;;;;16.33;8.93;;;8.80;95.60;;;;;;5070095;28;20633;-72
2022/11/18 06:30:08;;;;;;;14.97;8.57;;;8.90;96.20;;;;;;5074931;28;20171;-71
2022/11/18 06:32:33;;;;;;;15.27;8.10;;;8.90;95.70;;;;;;5075081;28;20175;-72
2022/11/18 06:34:59;;;;;;;15.50;8.87;;;8.90;95.70;;;;;;5075263;28;20179;-72
2022/11/18 06:37:24;;;;;;;17.50;9.20;;;9.00;96.60;;;;;;5074868;28;20728;-71
2022/11/18 06:39:50;;;;;;;10.53;7.57;;;9.10;96.00;;;;;;5074476;28;20178;-72
2022/11/18 06:45:01;;;;;;;12.70;7.93;;;9.20;95.80;;;;;;5070924;28;20304;-72
2022/11/18 06:47:27;;;;;;;15.43;8.33;;;9.30;97.10;;;;;;5066530;28;20197;-72
2022/11/18 06:49:52;;;;;;;17.00;9.13;;;9.30;96.30;;;;;;5071730;28;20184;-72
2022/11/18 06:52:18;;;;;;;19.25;9.57;;;9.30;95.70;;;;;;5073534;28;20178;-72
2022/11/18 06:54:44;;;;;;;17.25;9.00;;;9.30;95.70;;;;;;5074033;28;20186;-72
2022/11/18 06:57:09;;;;;;;17.00;9.07;;;9.40;96.00;;;;;;5074773;28;20255;-72
2022/11/18 06:59:35;;;;;;;13.77;8.02;;;9.40;95.80;;;;;;5071632;28;20186;-72
2022/11/18 07:02:01;;;;;;;15.40;7.77;;;9.50;95.60;;;;;;5075606;28;21076;-72
2022/11/18 07:04:26;;;;;;;15.90;8.02;;;9.50;96.00;;;;;;5072647;28;20186;-73
2022/11/18 07:06:52;;;;;;;18.55;8.88;;;9.50;95.30;;;;;;5073269;28;20267;-70
2022/11/18 07:09:18;;;;;;;17.73;8.77;;;9.60;96.50;;;;;;5072059;28;20193;-71
2022/11/18 07:11:43;;;;;;;16.20;7.97;;;9.70;95.70;;;;;;5066639;28;20187;-72
2022/11/18 07:14:09;;;;;;;19.63;9.05;;;9.70;95.50;;;;;;5072797;28;20208;-71
2022/11/18 07:16:36;;;;;;;12.38;7.82;;;9.70;95.50;;;;;;5065480;28;20185;-71
2022/11/18 07:19:08;;;;;;;17.05;8.48;;;9.80;96.30;;;;;;5068056;28;20660;-71
2022/11/18 07:21:34;;;;;;;16.58;7.90;;;10.00;96.50;;;;;;5074527;28;20562;-71
2022/11/18 07:23:59;;;;;;;16.35;8.05;;;10.00;95.50;;;;;;5072402;28;20190;-75
2022/11/18 07:26:25;;;;;;;15.25;7.07;;;10.10;96.50;;;;;;5071873;28;20209;-73
2022/11/18 07:28:52;;;;;;;16.67;8.07;;;10.10;95.90;;;;;;5068273;28;20175;-71
2022/11/18 07:31:19;;;;;;;11.48;8.65;;;10.10;96.60;;;;;;5068880;28;20178;-72
2022/11/18 07:33:46;;;;;;;16.42;8.95;;;10.20;96.20;;;;;;5071746;28;20183;-73
2022/11/18 07:36:17;;;;;;;11.98;6.68;;;10.20;96.00;;;;;;5066729;28;20194;-73
2022/11/18 07:38:43;;;;;;;15.13;8.40;;;10.40;96.30;;;;;;5074057;28;20186;-72
2022/11/18 07:41:12;;;;;;;13.25;7.63;;;10.40;95.80;;;;;;5064696;28;20178;-73
2022/11/18 07:43:39;;;;;;;14.77;7.53;;;10.50;95.70;;;;;;5063799;28;20202;-73
2022/11/18 07:46:23;;;;;;;13.38;8.05;;;10.70;95.70;;;;;;5067375;28;20207;-72
2022/11/18 07:48:50;;;;;;;13.07;7.25;;;10.80;95.40;;;;;;5065186;28;20221;-72
2022/11/18 07:51:18;;;;;;;12.25;7.43;;;11.00;95.80;;;;;;5069988;28;20178;-72
2022/11/18 07:53:43;;;;;;;12.90;6.60;;;11.10;96.20;;;;;;5060721;28;20302;-73
2022/11/18 07:56:10;;;;;;;11.90;6.32;;;11.30;95.90;;;;;;5064992;28;20290;-73
2022/11/18 07:58:36;;;;;;;11.45;7.30;;;11.40;96.10;;;;;;5059490;28;20707;-73
2022/11/18 08:01:12;;;;;;;14.93;6.43;;;11.50;95.70;;;;;;5062528;28;20278;-72
2022/11/18 08:03:38;;;;;;;14.02;7.65;;;11.50;95.00;;;;;;5061530;28;20202;-73
2022/11/18 08:06:05;;;;;;;13.18;7.47;;;11.50;95.10;;;;;;5063070;28;20221;-73
2022/11/18 08:08:31;;;;;;;16.02;7.18;;;11.60;95.10;;;;;;5064108;28;20182;-73
2022/11/18 08:10:58;;;;;;;21.58;7.32;;;11.60;94.40;;;;;;5067391;28;20976;-72
2022/11/18 08:13:24;;;;;;;14.98;8.35;;;11.40;94.10;;;;;;5063516;28;20188;-73
2022/11/18 08:15:50;;;;;;;17.05;7.28;;;11.40;94.50;;;;;;5070101;28;20289;-72
2022/11/18 08:18:16;;;;;;;15.13;7.75;;;11.40;94.30;;;;;;5065428;28;20684;-73
2022/11/18 08:20:43;;;;;;;14.80;7.60;;;11.40;94.50;;;;;;5068619;28;20176;-73
2022/11/18 08:23:09;;;;;;;15.18;7.30;;;11.30;94.00;;;;;;5065756;28;20213;-73
2022/11/18 08:25:35;;;;;;;17.23;8.93;;;11.20;94.00;;;;;;5067564;28;20267;-73
2022/11/18 08:28:01;;;;;;;20.13;8.38;;;11.20;94.70;;;;;;5066947;28;20203;-73
2022/11/18 08:30:26;;;;;;;12.70;7.50;;;11.20;94.30;;;;;;5066880;28;20211;-73
2022/11/18 08:32:52;;;;;;;16.20;8.50;;;11.20;94.10;;;;;;5068815;28;20643;-73
2022/11/18 08:35:18;;;;;;;13.07;7.75;;;11.30;95.00;;;;;;5063656;28;20766;-73
2022/11/18 08:37:43;;;;;;;17.25;8.60;;;11.40;94.50;;;;;;5068118;28;20283;-74
2022/11/18 08:40:09;;;;;;;20.45;8.98;;;11.30;94.50;;;;;;5072005;28;20187;-73
2022/11/18 08:42:36;;;;;;;14.82;8.60;;;11.20;94.00;;;;;;5062287;28;20179;-71
2022/11/18 08:45:04;;;;;;;18.65;7.80;;;11.10;94.10;;;;;;5066706;28;20214;-73
2022/11/18 08:47:29;;;;;;;14.80;7.30;;;11.10;94.10;;;;;;5061440;28;20202;-73
2022/11/18 08:49:55;;;;;;;13.02;7.07;;;11.10;94.20;;;;;;5060639;28;20179;-73
2022/11/18 08:52:21;;;;;;;20.65;8.52;;;11.00;94.10;;;;;;5071116;28;20187;-73
2022/11/18 08:54:46;;;;;;;28.35;9.05;;;11.10;94.60;;;;;;5071813;28;20194;-73
2022/11/18 08:57:12;;;;;;;18.10;8.40;;;11.10;94.30;;;;;;5073019;28;20179;-73
2022/11/18 08:59:38;;;;;;;16.08;8.30;;;11.10;94.20;;;;;;5067961;28;20221;-73
2022/11/18 09:02:03;;;;;;;18.60;8.15;;;11.10;94.10;;;;;;5071107;28;20574;-73
2022/11/18 09:04:29;;;;;;;17.33;7.85;;;11.20;94.50;;;;;;5074543;28;20186;-73
2022/11/18 09:06:55;;;;;;;12.57;8.18;;;11.20;94.50;;;;;;5078104;28;20245;-73
2022/11/18 09:09:21;;;;;;;14.48;8.68;;;11.20;94.10;;;;;;5068950;28;20194;-73
2022/11/18 09:11:46;;;;;;;19.35;9.05;;;11.30;94.90;;;;;;5068857;28;20183;-73
2022/11/18 09:14:12;;;;;;;19.65;8.80;;;11.30;94.50;;;;;;5072366;28;20935;-72
2022/11/18 09:16:38;;;;;;;18.17;9.32;;;11.40;94.30;;;;;;5073286;28;20623;-73
2022/11/18 09:19:04;;;;;;;14.57;8.20;;;11.40;94.70;;;;;;5070229;28;20183;-73
2022/11/18 09:21:31;;;;;;;13.55;7.97;;;11.50;94.40;;;;;;5071821;28;20187;-73
2022/11/18 09:23:57;;;;;;;17.80;8.40;;;11.60;94.80;;;;;;5068407;28;20179;-73
2022/11/18 09:26:23;;;;;;;16.90;8.38;;;11.70;94.90;;;;;;5066100;28;20223;-73
2022/11/18 09:28:51;;;;;;;19.38;8.90;;;11.80;94.70;;;;;;5067493;28;20277;-71
2022/11/18 09:31:17;;;;;;;16.27;8.77;;;12.00;95.00;;;;;;5070016;28;20182;-73
2022/11/18 09:33:43;;;;;;;14.25;8.15;;;12.10;94.90;;;;;;5067280;28;20182;-73
2022/11/18 09:36:21;;;;;;;16.60;8.40;;;12.30;94.90;;;;;;5067088;28;20300;-73
2022/11/18 09:38:47;;;;;;;21.83;10.30;;;12.50;95.20;;;;;;5067965;28;20186;-73
2022/11/18 09:41:49;;;;;;;18.55;10.65;;;12.90;96.10;;;;;;5070034;28;20187;-73
2022/11/18 09:44:17;;;;;;;14.38;9.50;;;13.20;94.30;;;;;;5068949;28;20239;-72
2022/11/18 09:47:10;;;;;;;17.48;9.52;;;13.50;93.70;;;;;;5069419;28;20221;-72
2022/11/18 09:49:41;;;;;;;21.83;9.35;;;14.00;93.70;;;;;;5063988;28;20286;-71
2022/11/18 09:52:15;;;;;;;23.52;9.93;;;14.70;94.40;;;;;;5065329;28;20206;-73
2022/11/18 09:54:41;;;;;;;25.02;11.82;;;15.40;94.40;;;;;;5071512;28;20193;-72
2022/11/18 09:57:16;;;;;;;24.60;11.85;;;16.20;92.30;;;;;;5071039;28;20175;-72
2022/11/18 09:59:42;;;;;;;22.52;11.80;;;16.90;89.70;;;;;;5062715;28;20174;-72
2022/11/18 10:02:17;;;;;;;26.45;11.52;;;17.70;89.10;;;;;;5067153;28;20174;-72
2022/11/18 10:04:42;;;;;;;26.42;11.82;;;18.50;85.00;;;;;;5066716;28;20174;-71
2022/11/18 10:07:46;;;;;;;27.13;14.25;;;19.20;83.10;;;;;;5069243;28;20250;-71
2022/11/18 10:10:21;;;;;;;30.55;14.07;;;20.00;79.70;;;;;;5071361;28;20193;-70
2022/11/18 10:13:00;;;;;;;28.67;14.32;;;20.70;76.90;;;;;;5068493;28;20209;-71
2022/11/18 10:16:03;;;;;;;25.15;13.25;;;21.10;75.40;;;;;;5071641;28;20298;-74
2022/11/18 10:18:32;;;;;;;24.67;12.77;;;21.60;73.50;;;;;;5000481;28;20290;-73
2022/11/18 10:21:22;;;;;;;22.40;13.98;;;22.00;73.00;;;;;;5018034;28;20839;-73
2022/11/18 10:23:59;;;;;;;23.73;13.77;;;22.50;71.40;;;;;;5017403;28;20931;-73
2022/11/18 10:26:54;;;;;;;22.20;12.65;;;23.00;72.10;;;;;;5019376;28;20229;-73
2022/11/18 10:29:20;;;;;;;18.35;12.15;;;23.60;68.80;;;;;;5013820;28;20771;-72
2022/11/18 10:31:56;;;;;;;20.15;11.93;;;24.00;69.70;;;;;;5019350;28;20343;-73
2022/11/18 10:34:22;;;;;;;21.38;13.15;;;24.40;69.30;;;;;;5018607;28;20598;-71
2022/11/18 10:37:11;;;;;;;23.20;14.05;;;25.00;69.60;;;;;;5019254;28;20192;-72
2022/11/18 10:39:50;;;;;;;28.67;14.23;;;25.50;67.00;;;;;;5019511;28;20187;-72
2022/11/18 10:42:39;;;;;;;26.85;15.88;;;25.70;65.30;;;;;;5018889;28;20526;-72
2022/11/18 10:45:31;;;;;;;28.00;14.93;;;25.80;64.00;;;;;;5017859;28;20326;-72
2022/11/18 10:48:01;;;;;;;21.98;14.93;;;25.50;63.60;;;;;;5013992;28;20247;-72
2022/11/18 10:50:39;;;;;;;25.95;15.38;;;25.60;66.40;;;;;;5003005;28;20188;-71
2022/11/18 10:53:26;;;;;;;24.33;14.60;;;25.80;64.30;;;;;;5018311;28;20188;-72
2022/11/18 10:56:01;;;;;;;26.70;14.88;;;26.00;62.90;;;;;;5059884;28;20677;-72
2022/11/18 10:58:31;;;;;;;27.92;14.98;;;25.80;60.90;;;;;;5069280;28;20361;-72
2022/11/18 11:01:27;;;;;;;30.60;15.57;;;25.50;64.40;;;;;;5071345;28;20201;-72
2022/11/18 11:04:03;;;;;;;27.42;14.98;;;25.40;63.60;;;;;;5067665;28;20238;-72
2022/11/18 11:06:30;;;;;;;32.33;15.32;;;25.20;64.60;;;;;;5069005;28;20216;-71
2022/11/18 11:08:57;;;;;;;29.42;15.27;;;25.10;64.10;;;;;;5069330;28;20190;-70
2022/11/18 11:11:25;;;;;;;20.33;12.82;;;25.00;63.00;;;;;;5068580;28;20278;-72
2022/11/18 11:13:54;;;;;;;20.08;13.30;;;24.50;62.40;;;;;;5064388;28;20226;-72
2022/11/18 11:16:21;;;;;;;21.52;12.55;;;24.20;65.00;;;;;;5069526;28;20221;-72
2022/11/18 11:18:55;;;;;;;19.02;12.88;;;24.10;65.00;;;;;;5067536;28;20179;-73
2022/11/18 11:21:22;;;;;;;21.73;12.55;;;23.90;65.10;;;;;;5066488;28;20192;-72
2022/11/18 11:23:48;;;;;;;20.05;13.18;;;23.70;64.10;;;;;;5068028;28;20237;-72
2022/11/18 11:26:46;;;;;;;22.48;14.18;;;23.70;65.70;;;;;;5067786;28;20207;-72
2022/11/18 11:29:30;;;;;;;25.58;14.45;;;23.60;63.70;;;;;;5044377;28;20199;-72
2022/11/18 11:31:55;;;;;;;25.40;14.73;;;23.30;64.30;;;;;;5042897;28;20283;-71
2022/11/18 11:34:49;;;;;;;28.08;15.90;;;23.20;65.90;;;;;;5048681;28;21698;-73
2022/11/18 11:37:39;;;;;;;27.92;16.02;;;22.90;65.10;;;;;;5045129;28;20194;-72
2022/11/18 11:40:38;;;;;;;25.02;13.73;;;22.60;66.60;;;;;;5049600;28;20255;-72
2022/11/18 11:43:09;;;;;;;20.45;13.85;;;22.40;65.90;;;;;;4945721;28;20342;-72
2022/11/18 11:46:04;;;;;;;22.67;14.85;;;22.20;66.80;;;;;;4947897;28;20246;-71
2022/11/18 11:49:00;;;;;;;21.33;13.57;;;21.60;66.20;;;;;;4943718;28;20389;-72
2022/11/18 11:51:43;;;;;;;23.45;14.43;;;21.00;67.60;;;;;;4947643;28;20191;-73
2022/11/18 11:54:15;;;;;;;22.00;13.40;;;20.60;68.30;;;;;;4949844;28;20214;-73
2022/11/18 11:57:04;;;;;;;17.52;11.10;;;20.30;70.50;;;;;;4948096;28;20198;-71
2022/11/18 11:59:47;;;;;;;19.20;11.60;;;20.30;69.90;;;;;;4945351;28;20195;-72
2022/11/18 12:02:33;;;;;;;18.08;11.02;;;20.10;70.10;;;;;;4947377;28;20190;-72
2022/11/18 12:05:07;;;;;;;15.50;10.30;;;19.70;70.80;;;;;;4950441;28;20596;-72
2022/11/18 12:07:48;;;;;;;19.65;11.25;;;19.30;71.20;;;;;;4987325;28;20273;-72
2022/11/18 12:10:16;;;;;;;17.25;10.57;;;19.00;72.40;;;;;;4986793;28;20185;-72
2022/11/18 12:13:16;;;;;;;18.45;10.80;;;18.80;72.50;;;;;;4986875;28;20289;-73
2022/11/18 12:16:09;;;;;;;13.75;10.73;;;18.70;73.20;;;;;;4988248;28;20233;-73
2022/11/18 12:18:35;;;;;;;17.33;11.07;;;18.40;73.90;;;;;;4990363;28;20193;-72
2022/11/18 12:21:01;;;;;;;17.80;10.07;;;18.30;74.30;;;;;;5061897;28;20288;-71
2022/11/18 12:23:28;;;;;;;14.35;10.13;;;18.20;74.10;;;;;;5069316;28;20187;-73
2022/11/18 12:26:08;;;;;;;15.10;10.88;;;18.30;74.90;;;;;;5066160;28;20795;-73
2022/11/18 12:28:40;;;;;;;13.30;9.23;;;18.10;74.90;;;;;;5069935;28;21205;-73
2022/11/18 12:31:17;;;;;;;14.25;8.93;;;17.90;75.50;;;;;;5069831;28;20181;-73
2022/11/18 12:33:53;;;;;;;12.75;7.93;;;17.80;76.00;;;;;;5066876;28;20263;-72
2022/11/18 12:36:25;;;;;;;11.27;8.25;;;17.70;76.00;;;;;;5068803;28;20185;-72
2022/11/18 12:38:52;;;;;;;13.52;8.32;;;17.70;76.00;;;;;;5071994;28;20183;-73
2022/11/18 12:44:26;;;;;;;7.65;6.82;;;17.50;75.90;;;;;;5068549;28;20212;-73
2022/11/18 12:47:02;;;;;;;7.28;6.47;;;17.30;76.20;;;;;;5069133;28;20237;-72
2022/11/18 12:49:27;;;;;;;8.85;6.70;;;17.40;76.10;;;;;;5070511;28;20204;-73
2022/11/18 12:52:01;;;;;;;10.15;7.75;;;17.30;76.20;;;;;;5072441;28;20182;-73
2022/11/18 12:54:29;;;;;;;11.18;6.13;;;17.30;76.30;;;;;;5070368;28;20180;-73
2022/11/18 12:57:02;;;;;;;6.85;5.57;;;17.20;75.80;;;;;;5068657;28;20668;-73
2022/11/18 12:59:34;;;;;;;6.65;5.60;;;17.10;76.00;;;;;;5072091;28;20547;-71
2022/11/18 13:02:21;;;;;;;9.90;5.50;;;17.00;76.20;;;;;;5067333;28;20185;-71
2022/11/18 13:05:07;;;;;;;7.63;5.05;;;16.90;76.20;;;;;;5067448;28;20187;-72
2022/11/18 13:08:13;;;;;;;8.98;4.85;;;16.90;76.30;;;;;;5068953;28;20186;-73
2022/11/18 13:11:43;;;;;;;11.15;5.68;;;16.90;76.30;;;;;;5048358;28;20270;-73
2022/11/18 13:13:38;;;;;;;7.55;5.18;;;16.80;76.50;;;;;;5049377;28;20320;-73
2022/11/18 13:19:02;;;;;;;7.38;4.20;;;16.80;76.50;;;;;;5044492;28;20217;-73